NWWT weather

Oua Tom Airport
La Foa, New Caledonia

Public forecast

Using degrees Celsius for public forecast. Weather courtesy of forecast.io.

METAR (pilot weather report)

Closest report is La Tontouta International Airport, 22.8 nm (42.3 km) ESE. Retrieved 2018/08/17 09:30 UTC (24 minutes ago):

NWWW 170930Z AUTO 00000KT 9999 SCT062 BKN076 18/13 Q1015 NOSIG

TAF (pilot weather forecast)

Closest forecast is La Tontouta International Airport, 22.8 nm (42.3 km) ESE. Retrieved 2018/08/17 06:00 UTC (4 hours ago):

TAF NWWW 170500Z 1706/1806 18008KT 9999 FEW050